createdAt,value
2018-07-13T00:00:23.415Z,16.90
2018-07-13T00:02:52.140Z,16.90
2018-07-13T00:05:20.865Z,16.90
2018-07-13T00:07:49.568Z,17.00
2018-07-13T00:10:18.302Z,17.00
2018-07-13T00:12:46.984Z,17.00
2018-07-13T00:15:15.700Z,16.90
2018-07-13T00:17:44.422Z,17.00
2018-07-13T00:20:13.198Z,17.00
2018-07-13T00:22:41.891Z,17.00
2018-07-13T00:25:10.624Z,17.00
2018-07-13T00:27:39.325Z,17.00
2018-07-13T00:30:08.024Z,17.00
2018-07-13T00:32:36.769Z,17.00
2018-07-13T00:35:05.524Z,17.00
2018-07-13T00:37:34.245Z,17.00
2018-07-13T00:40:03.048Z,16.90
2018-07-13T00:42:31.753Z,16.90
2018-07-13T00:45:00.459Z,16.90
2018-07-13T00:47:29.197Z,16.90
2018-07-13T00:49:57.853Z,16.90
2018-07-13T00:52:26.584Z,16.90
2018-07-13T00:54:55.339Z,16.90
2018-07-13T00:57:24.097Z,17.00
2018-07-13T00:59:52.802Z,16.90
2018-07-13T01:02:21.547Z,16.90
2018-07-13T01:04:50.210Z,16.90
2018-07-13T01:07:18.917Z,17.00
2018-07-13T01:09:47.645Z,17.00
2018-07-13T01:12:16.360Z,16.90
2018-07-13T01:14:45.077Z,16.90
2018-07-13T01:17:13.790Z,16.90
2018-07-13T01:19:42.652Z,16.90
2018-07-13T01:22:11.392Z,16.90
2018-07-13T01:24:40.159Z,16.90
2018-07-13T01:27:08.868Z,16.80
2018-07-13T01:29:37.583Z,16.80
2018-07-13T01:32:06.441Z,16.80
2018-07-13T01:34:35.281Z,16.80
2018-07-13T01:37:04.061Z,16.80
2018-07-13T01:39:32.840Z,16.80
2018-07-13T01:42:01.580Z,16.80
2018-07-13T01:44:30.364Z,16.80
2018-07-13T01:46:59.162Z,16.80
2018-07-13T01:49:27.912Z,16.80
2018-07-13T01:51:56.597Z,16.70
2018-07-13T01:54:25.320Z,16.70
2018-07-13T01:56:54.069Z,16.70
2018-07-13T01:59:22.739Z,16.70
2018-07-13T02:01:51.889Z,16.60
2018-07-13T02:04:20.593Z,16.60
2018-07-13T02:09:17.684Z,16.60
2018-07-13T02:11:46.396Z,16.60
2018-07-13T02:14:15.147Z,16.60
2018-07-13T02:16:43.976Z,16.60
2018-07-13T02:19:12.664Z,16.50
2018-07-13T02:21:41.453Z,16.50
2018-07-13T02:24:10.845Z,16.50
2018-07-13T02:26:39.627Z,16.50
2018-07-13T02:29:08.358Z,16.50
2018-07-13T03:53:35.894Z,16.50
2018-07-13T03:56:04.891Z,15.70
2018-07-13T03:58:34.059Z,15.80
2018-07-13T04:01:02.817Z,15.90
2018-07-13T04:03:31.659Z,16.00
2018-07-13T04:06:00.537Z,16.10
2018-07-13T04:08:29.256Z,16.10
2018-07-13T04:10:57.977Z,16.20
2018-07-13T04:13:26.716Z,16.20
2018-07-13T04:15:55.473Z,16.30
2018-07-13T04:18:24.975Z,16.40
2018-07-13T04:20:54.382Z,16.50
2018-07-13T04:23:24.091Z,16.50
2018-07-13T04:25:53.116Z,16.50
2018-07-13T04:28:22.284Z,16.60
2018-07-13T04:30:51.208Z,16.60
2018-07-13T04:33:19.916Z,16.60
2018-07-13T04:35:48.651Z,16.70
2018-07-13T04:38:17.464Z,16.70
2018-07-13T04:40:46.212Z,16.80
2018-07-13T04:43:14.865Z,16.80
2018-07-13T04:45:43.703Z,16.80
2018-07-13T04:48:12.470Z,16.90
2018-07-13T04:50:41.286Z,16.90
2018-07-13T04:53:10.410Z,16.90
2018-07-13T04:55:39.216Z,16.90
2018-07-13T04:58:08.048Z,17.00
2018-07-13T05:00:36.941Z,17.10
2018-07-13T05:03:05.792Z,17.00
2018-07-13T05:05:34.559Z,17.10
2018-07-13T05:08:03.678Z,17.10
2018-07-13T05:10:32.465Z,17.10
2018-07-13T05:13:01.184Z,17.10
2018-07-13T05:15:29.970Z,17.20
2018-07-13T05:17:58.647Z,17.20
2018-07-13T05:20:27.452Z,17.30
2018-07-13T05:22:56.277Z,17.30
2018-07-13T05:25:25.060Z,17.30
2018-07-13T05:27:54.251Z,17.30
2018-07-13T05:30:23.012Z,17.40
2018-07-13T05:32:51.844Z,17.40
2018-07-13T05:35:20.712Z,17.50
2018-07-13T05:37:49.491Z,17.50
2018-07-13T05:40:18.249Z,17.60
2018-07-13T05:42:47.075Z,17.80
2018-07-13T05:45:15.963Z,17.90
2018-07-13T05:47:44.779Z,18.00
2018-07-13T05:50:13.633Z,18.10
2018-07-13T05:52:42.466Z,18.40
2018-07-13T05:55:11.262Z,18.60
2018-07-13T05:57:40.115Z,18.90
2018-07-13T06:00:09.145Z,18.90
2018-07-13T06:02:37.930Z,19.10
2018-07-13T06:05:06.700Z,19.00
2018-07-13T06:07:35.568Z,18.90
2018-07-13T06:10:04.481Z,18.80
2018-07-13T06:12:33.240Z,18.80
2018-07-13T06:15:02.019Z,18.90
2018-07-13T06:17:32.103Z,18.80
2018-07-13T06:20:00.941Z,18.80
2018-07-13T06:22:29.955Z,19.00
2018-07-13T06:24:58.656Z,19.00
2018-07-13T06:27:27.364Z,18.90
2018-07-13T06:29:56.084Z,18.90
2018-07-13T06:32:24.818Z,19.00
2018-07-13T06:34:53.526Z,19.30
2018-07-13T06:37:22.289Z,19.40
2018-07-13T06:39:51.040Z,19.50
2018-07-13T06:42:19.916Z,19.50
2018-07-13T06:44:48.959Z,19.50
2018-07-13T06:47:17.620Z,19.50
2018-07-13T06:49:46.345Z,19.50
2018-07-13T06:52:15.108Z,19.50
2018-07-13T06:54:43.797Z,19.40
2018-07-13T06:57:21.361Z,19.40
2018-07-13T06:59:50.147Z,19.40
2018-07-13T07:02:29.913Z,19.40
2018-07-13T07:06:07.992Z,19.70
2018-07-13T07:08:38.249Z,20.10
2018-07-13T07:11:07.109Z,20.80
2018-07-13T07:13:39.750Z,21.20
2018-07-13T07:16:08.537Z,21.50
2018-07-13T07:18:37.395Z,21.90
2018-07-13T07:21:06.330Z,22.70
2018-07-13T07:23:35.407Z,22.90
2018-07-13T07:26:05.061Z,23.00
2018-07-13T07:28:33.993Z,23.60
2018-07-13T07:31:03.397Z,24.20
2018-07-13T07:33:32.134Z,24.40
2018-07-13T07:36:00.818Z,24.80
2018-07-13T07:38:29.567Z,25.60
2018-07-13T07:40:58.303Z,26.30
2018-07-13T07:43:27.041Z,27.10
2018-07-13T07:45:55.741Z,28.00
2018-07-13T07:48:24.482Z,28.60
2018-07-13T07:50:53.190Z,28.70
2018-07-13T07:53:21.902Z,29.10
2018-07-13T07:55:50.587Z,29.10
2018-07-13T07:58:19.292Z,29.40
2018-07-13T08:00:48.015Z,29.90
2018-07-13T08:03:16.691Z,29.60
2018-07-13T08:05:45.368Z,29.90
2018-07-13T08:08:14.045Z,29.90
2018-07-13T08:10:42.760Z,30.00
2018-07-13T08:13:11.441Z,29.80
2018-07-13T08:15:40.101Z,29.10
2018-07-13T08:18:08.817Z,28.40
2018-07-13T08:20:39.626Z,28.20
2018-07-13T08:23:09.226Z,27.90
2018-07-13T08:25:38.742Z,27.60
2018-07-13T08:28:09.052Z,27.10
2018-07-13T08:30:43.776Z,26.70
2018-07-13T08:33:12.439Z,26.40
2018-07-13T08:35:41.112Z,26.50
2018-07-13T08:38:09.880Z,26.20
2018-07-13T08:40:38.658Z,26.10
2018-07-13T08:43:07.461Z,26.80
2018-07-13T08:45:36.260Z,27.30
2018-07-13T08:48:05.033Z,27.00
2018-07-13T08:50:33.985Z,26.70
2018-07-13T08:53:03.592Z,26.90
2018-07-13T08:55:32.363Z,27.70
2018-07-13T08:58:01.149Z,28.40
2018-07-13T09:00:29.941Z,28.70
2018-07-13T09:02:58.713Z,28.80
2018-07-13T09:05:27.474Z,29.10
2018-07-13T09:07:56.355Z,29.50
2018-07-13T09:10:25.078Z,29.70
2018-07-13T09:12:53.880Z,30.10
2018-07-13T09:15:22.669Z,29.80
2018-07-13T09:17:51.433Z,29.90
2018-07-13T09:20:20.194Z,30.20
2018-07-13T09:22:48.954Z,30.30
2018-07-13T09:25:17.658Z,30.50
2018-07-13T09:27:46.348Z,30.70
2018-07-13T09:30:15.125Z,30.90
2018-07-13T09:32:43.810Z,30.70
2018-07-13T09:35:12.537Z,30.70
2018-07-13T09:37:41.332Z,30.60
2018-07-13T09:40:10.045Z,31.10
2018-07-13T09:42:38.855Z,30.80
2018-07-13T09:45:07.611Z,31.00
2018-07-13T09:47:36.867Z,30.90
2018-07-13T09:50:05.728Z,31.50
2018-07-13T09:52:34.542Z,31.90
2018-07-13T09:55:03.357Z,31.10
2018-07-13T09:57:32.203Z,30.80
2018-07-13T10:00:00.930Z,30.30
2018-07-13T10:02:29.743Z,29.70
2018-07-13T10:04:58.504Z,29.00
2018-07-13T10:07:27.569Z,29.20
2018-07-13T10:09:56.223Z,28.30
2018-07-13T10:12:24.944Z,28.20
2018-07-13T10:14:53.827Z,29.10
2018-07-13T10:17:22.589Z,29.70
2018-07-13T10:19:51.333Z,29.90
2018-07-13T10:22:23.275Z,30.80
2018-07-13T10:24:52.778Z,30.90
2018-07-13T10:27:21.472Z,30.80
2018-07-13T10:29:54.150Z,30.90
2018-07-13T10:32:22.943Z,30.70
2018-07-13T10:34:52.570Z,30.80
2018-07-13T10:37:21.384Z,30.10
2018-07-13T10:39:50.072Z,29.60
2018-07-13T10:42:18.803Z,30.00
2018-07-13T10:44:47.553Z,30.50
2018-07-13T10:47:16.267Z,30.60
2018-07-13T10:49:44.934Z,30.20
2018-07-13T10:52:13.677Z,30.80
2018-07-13T10:54:42.354Z,30.90
2018-07-13T10:57:11.025Z,30.50
2018-07-13T10:59:39.765Z,30.50
2018-07-13T11:02:08.436Z,29.90
2018-07-13T11:04:37.121Z,29.80
2018-07-13T11:07:05.816Z,30.00
2018-07-13T11:09:34.463Z,30.00
2018-07-13T11:12:03.165Z,29.30
2018-07-13T11:14:31.878Z,29.10
2018-07-13T11:17:00.584Z,29.40
2018-07-13T11:19:29.284Z,29.80
2018-07-13T11:21:58.029Z,30.30
2018-07-13T11:24:26.690Z,30.30
2018-07-13T11:26:55.377Z,29.60
2018-07-13T11:29:24.102Z,28.70
2018-07-13T11:31:52.808Z,28.60
2018-07-13T11:34:21.529Z,28.80
2018-07-13T11:36:50.307Z,29.30
2018-07-13T11:39:18.942Z,29.80
2018-07-13T11:41:47.612Z,29.90
2018-07-13T11:44:16.363Z,29.70
2018-07-13T11:46:45.057Z,29.50
2018-07-13T11:49:13.716Z,28.90
2018-07-13T11:51:42.413Z,28.30
2018-07-13T11:54:11.077Z,28.00
2018-07-13T11:56:39.791Z,27.80
2018-07-13T11:59:08.507Z,27.80
2018-07-13T12:01:37.221Z,27.90
2018-07-13T12:04:05.939Z,27.90
2018-07-13T12:06:34.697Z,28.00
2018-07-13T12:09:03.544Z,28.00
2018-07-13T12:11:32.224Z,27.90
2018-07-13T12:14:00.918Z,28.10
2018-07-13T12:16:29.662Z,28.10
2018-07-13T12:18:58.338Z,28.10
2018-07-13T12:21:27.056Z,28.10
2018-07-13T12:23:55.734Z,28.00
2018-07-13T12:26:24.422Z,27.90
2018-07-13T12:28:53.136Z,27.80
2018-07-13T12:31:21.864Z,27.70
2018-07-13T12:33:50.582Z,27.60
2018-07-13T12:36:19.296Z,27.70
2018-07-13T12:38:48.009Z,27.70
2018-07-13T12:41:16.730Z,27.80
2018-07-13T12:43:45.612Z,27.70
2018-07-13T12:46:14.620Z,27.40
2018-07-13T12:48:43.448Z,27.40
2018-07-13T12:51:12.364Z,27.60
2018-07-13T12:53:41.085Z,27.70
2018-07-13T12:56:09.752Z,27.80
2018-07-13T12:58:38.772Z,27.60
2018-07-13T13:01:07.462Z,27.40
2018-07-13T13:03:36.150Z,27.60
2018-07-13T13:06:04.881Z,27.80
2018-07-13T13:08:33.594Z,27.70
2018-07-13T13:11:02.316Z,27.90
2018-07-13T13:13:31.139Z,28.00
2018-07-13T13:15:59.849Z,28.00
2018-07-13T13:18:28.544Z,28.10
2018-07-13T13:20:57.228Z,27.90
2018-07-13T13:23:25.916Z,27.60
2018-07-13T13:25:54.599Z,27.20
2018-07-13T13:28:23.308Z,26.90
2018-07-13T13:30:51.967Z,26.70
2018-07-13T13:33:20.661Z,26.60
2018-07-13T13:35:49.390Z,26.50
2018-07-13T13:38:18.145Z,26.50
2018-07-13T13:40:46.934Z,26.50
2018-07-13T13:43:15.673Z,26.60
2018-07-13T13:45:44.438Z,26.90
2018-07-13T13:48:13.236Z,27.20
2018-07-13T13:50:41.933Z,27.30
2018-07-13T13:53:10.644Z,27.20
2018-07-13T13:55:39.378Z,27.30
2018-07-13T13:58:08.132Z,27.20
2018-07-13T14:00:37.315Z,27.10
2018-07-13T14:03:06.121Z,26.90
2018-07-13T14:05:34.982Z,26.90
2018-07-13T14:08:03.672Z,27.00
2018-07-13T14:10:32.377Z,26.90
2018-07-13T14:13:01.100Z,26.80
2018-07-13T14:15:29.812Z,26.70
2018-07-13T14:17:58.500Z,26.70
2018-07-13T14:20:27.265Z,26.70
2018-07-13T14:22:55.981Z,26.70
2018-07-13T14:25:24.649Z,26.70
2018-07-13T14:27:53.361Z,26.70
2018-07-13T14:30:22.045Z,26.60
2018-07-13T14:32:50.761Z,26.40
2018-07-13T14:35:19.545Z,26.30
2018-07-13T14:37:48.598Z,26.30
2018-07-13T14:40:17.387Z,26.30
2018-07-13T14:42:46.153Z,26.40
2018-07-13T14:45:14.949Z,26.40
2018-07-13T14:48:46.901Z,26.40
2018-07-13T14:51:15.629Z,26.40
2018-07-13T14:53:44.301Z,26.30
2018-07-13T14:56:13.069Z,26.20
2018-07-13T14:58:41.736Z,26.30
2018-07-13T15:01:10.461Z,26.30
2018-07-13T15:03:39.265Z,26.30
2018-07-13T15:06:08.085Z,26.30
2018-07-13T15:08:36.725Z,26.30
2018-07-13T15:11:05.668Z,26.30
2018-07-13T15:13:34.404Z,26.30
2018-07-13T15:16:03.149Z,26.20
2018-07-13T15:18:31.881Z,26.00
2018-07-13T15:21:00.572Z,26.00
2018-07-13T15:23:29.432Z,26.10
2018-07-13T15:25:58.357Z,26.10
2018-07-13T15:28:27.029Z,26.10
2018-07-13T15:30:55.729Z,26.10
2018-07-13T15:33:24.498Z,26.10
2018-07-13T15:35:53.205Z,26.10
2018-07-13T15:38:21.898Z,26.10
2018-07-13T15:40:50.704Z,26.10
2018-07-13T15:43:19.406Z,26.10
2018-07-13T15:45:48.072Z,26.10
2018-07-13T15:48:16.824Z,26.00
2018-07-13T15:50:47.396Z,26.00
2018-07-13T15:53:16.132Z,25.90
2018-07-13T15:55:50.274Z,25.90
2018-07-13T15:58:19.909Z,25.90
2018-07-13T16:00:49.555Z,25.90
2018-07-13T16:03:18.343Z,25.80
2018-07-13T16:05:48.159Z,25.70
2018-07-13T16:08:17.092Z,25.70
2018-07-13T16:10:45.793Z,25.70
2018-07-13T16:13:15.946Z,25.70
2018-07-13T16:15:44.633Z,25.80
2018-07-13T16:18:13.415Z,25.80
2018-07-13T16:20:42.155Z,25.80
2018-07-13T16:23:10.807Z,25.70
2018-07-13T16:25:39.503Z,25.70
2018-07-13T16:28:08.233Z,25.70
2018-07-13T16:30:36.960Z,25.70
2018-07-13T16:33:06.081Z,25.60
2018-07-13T16:35:34.859Z,25.60
2018-07-13T16:38:03.533Z,25.60
2018-07-13T16:40:32.219Z,25.50
2018-07-13T16:43:00.949Z,25.50
2018-07-13T16:45:29.654Z,25.50
2018-07-13T16:47:58.369Z,25.40
2018-07-13T16:50:27.170Z,25.40
2018-07-13T16:52:56.173Z,25.30
2018-07-13T16:55:24.866Z,25.30
2018-07-13T16:57:53.673Z,25.30
2018-07-13T17:00:22.410Z,25.30
2018-07-13T17:02:51.189Z,25.30
2018-07-13T17:05:20.020Z,25.30
2018-07-13T17:07:48.691Z,25.20
2018-07-13T17:10:17.416Z,25.20
2018-07-13T17:12:46.196Z,25.10
2018-07-13T17:15:14.957Z,25.10
2018-07-13T17:17:45.361Z,25.00
2018-07-13T17:20:14.172Z,25.00
2018-07-13T17:22:42.810Z,25.00
2018-07-13T17:25:11.696Z,25.00
2018-07-13T17:27:40.597Z,25.00
2018-07-13T17:30:10.054Z,25.00
2018-07-13T17:32:39.063Z,25.00
2018-07-13T17:35:07.879Z,24.90
2018-07-13T17:37:37.333Z,24.90
2018-07-13T17:40:06.264Z,24.80
2018-07-13T17:42:34.991Z,24.80
2018-07-13T17:45:03.911Z,24.70
2018-07-13T17:47:32.648Z,24.70
2018-07-13T17:50:01.465Z,24.70
2018-07-13T17:52:31.021Z,24.70
2018-07-13T17:54:59.750Z,24.60
2018-07-13T17:57:28.460Z,24.60
2018-07-13T17:59:57.160Z,24.60
2018-07-13T18:02:26.188Z,24.50
2018-07-13T18:04:55.756Z,24.40
2018-07-13T18:07:24.574Z,24.40
2018-07-13T18:09:53.292Z,24.30
2018-07-13T18:12:22.045Z,24.20
2018-07-13T18:14:51.283Z,24.20
2018-07-13T18:17:20.478Z,24.10
2018-07-13T18:22:17.673Z,23.90
2018-07-13T18:24:46.404Z,23.90
2018-07-13T18:27:15.536Z,23.80
2018-07-13T18:29:44.883Z,23.70
2018-07-13T18:32:14.777Z,23.70
2018-07-13T18:34:43.525Z,23.60
2018-07-13T18:37:12.301Z,23.60
2018-07-13T18:39:41.933Z,23.50
2018-07-13T18:42:10.677Z,23.40
2018-07-13T18:44:40.323Z,23.30
2018-07-13T18:47:09.235Z,23.20
2018-07-13T18:49:38.077Z,23.20
2018-07-13T18:52:07.099Z,23.10
2018-07-13T18:54:36.012Z,23.00
2018-07-13T18:57:04.804Z,22.90
2018-07-13T19:02:02.152Z,22.80
2018-07-13T19:04:30.982Z,22.70
2018-07-13T19:06:59.692Z,22.60
2018-07-13T19:14:26.888Z,22.40
2018-07-13T19:16:55.632Z,22.30
2018-07-13T19:19:25.481Z,22.30
2018-07-13T19:21:54.332Z,22.20
2018-07-13T19:24:23.034Z,22.10
2018-07-13T19:26:51.874Z,22.00
2018-07-13T19:29:20.725Z,21.90
2018-07-13T19:31:49.460Z,21.90
2018-07-13T19:34:18.196Z,21.80
2018-07-13T19:36:46.901Z,21.70
2018-07-13T19:39:15.582Z,21.60
2018-07-13T19:41:44.292Z,21.50
2018-07-13T19:44:12.972Z,21.40
2018-07-13T19:46:41.741Z,21.30
2018-07-13T19:49:10.389Z,21.20
2018-07-13T19:51:39.110Z,21.20
2018-07-13T19:54:07.861Z,21.00
2018-07-13T19:56:37.115Z,21.00
2018-07-13T19:59:05.946Z,20.90
2018-07-13T20:01:34.833Z,20.80
2018-07-13T20:04:03.536Z,20.70
2018-07-13T20:06:32.273Z,20.70
2018-07-13T20:09:00.992Z,20.60
2018-07-13T20:11:29.698Z,20.50
2018-07-13T20:13:58.347Z,20.50
2018-07-13T20:16:27.340Z,20.40
2018-07-13T20:18:56.230Z,20.40
2018-07-13T20:21:25.012Z,20.30
2018-07-13T20:23:53.732Z,20.30
2018-07-13T20:26:22.503Z,20.30
2018-07-13T20:28:51.409Z,20.30
2018-07-13T20:31:20.184Z,20.30
2018-07-13T20:33:49.076Z,20.30
2018-07-13T20:36:17.900Z,20.40
2018-07-13T20:38:47.197Z,20.40
2018-07-13T20:41:16.273Z,20.30
2018-07-13T20:43:45.068Z,20.50
2018-07-13T20:46:13.953Z,20.70
2018-07-13T20:48:42.665Z,20.70
2018-07-13T20:51:11.439Z,20.80
2018-07-13T20:53:40.165Z,20.80
2018-07-13T20:56:08.952Z,20.80
2018-07-13T20:58:37.625Z,20.70
2018-07-13T21:01:07.403Z,20.80
2018-07-13T21:03:36.475Z,20.70
2018-07-13T21:06:05.301Z,20.70
2018-07-13T21:08:34.164Z,20.70
2018-07-13T21:11:03.249Z,20.60
2018-07-13T21:13:32.178Z,20.50
2018-07-13T21:16:00.902Z,20.50
2018-07-13T21:18:29.600Z,20.40
2018-07-13T21:20:59.254Z,20.30
2018-07-13T21:23:27.966Z,20.30
2018-07-13T21:25:56.696Z,20.10
2018-07-13T21:28:25.540Z,20.00
2018-07-13T21:30:54.280Z,19.90
2018-07-13T21:33:22.928Z,19.80
2018-07-13T21:35:51.777Z,19.70
2018-07-13T21:38:20.669Z,19.60
2018-07-13T21:40:49.588Z,19.50
2018-07-13T21:43:18.267Z,19.40
2018-07-13T21:45:47.061Z,19.30
2018-07-13T21:48:15.805Z,19.30
2018-07-13T21:50:44.794Z,19.20
2018-07-13T21:53:14.076Z,19.10
2018-07-13T21:55:42.830Z,19.10
2018-07-13T21:58:11.766Z,19.10
2018-07-13T22:00:40.574Z,19.00
2018-07-13T22:03:09.258Z,18.90
2018-07-13T22:05:38.564Z,19.00
2018-07-13T22:08:07.401Z,18.80
2018-07-13T22:10:36.363Z,18.70
2018-07-13T22:13:05.100Z,18.60
2018-07-13T22:15:33.887Z,18.50
2018-07-13T22:18:02.952Z,18.40
2018-07-13T22:20:32.256Z,18.30
2018-07-13T22:23:00.965Z,18.30
2018-07-13T22:27:57.974Z,18.10
2018-07-13T22:30:26.828Z,18.00
2018-07-13T22:32:55.669Z,17.90
2018-07-13T22:35:25.567Z,17.90
2018-07-13T22:37:54.919Z,17.80
2018-07-13T22:40:23.756Z,17.80
2018-07-13T22:42:52.486Z,17.70
2018-07-13T22:45:21.249Z,17.60
2018-07-13T22:47:49.991Z,17.50
2018-07-13T22:50:18.724Z,17.40
2018-07-13T22:52:47.440Z,17.30
2018-07-13T22:55:16.190Z,17.30
2018-07-13T22:57:44.919Z,17.20
2018-07-13T23:00:13.664Z,17.20
2018-07-13T23:02:42.366Z,17.10
2018-07-13T23:05:11.119Z,17.10
2018-07-13T23:07:39.876Z,17.00
2018-07-13T23:10:08.597Z,17.00
2018-07-13T23:12:37.301Z,16.90
2018-07-13T23:15:06.117Z,16.80
2018-07-13T23:17:34.886Z,16.80
2018-07-13T23:20:03.638Z,16.80
2018-07-13T23:22:32.466Z,16.70
2018-07-13T23:25:01.209Z,16.70
2018-07-13T23:27:29.921Z,16.60
2018-07-13T23:29:58.748Z,16.50
2018-07-13T23:32:27.504Z,16.50
2018-07-13T23:34:56.217Z,16.40
2018-07-13T23:37:25.027Z,16.40
2018-07-13T23:39:53.737Z,16.40
2018-07-13T23:42:22.456Z,16.40
2018-07-13T23:44:51.245Z,16.30
2018-07-13T23:47:20.197Z,16.30
2018-07-13T23:49:49.388Z,16.20
2018-07-13T23:52:18.109Z,16.20
2018-07-13T23:54:46.976Z,16.10
2018-07-13T23:57:15.764Z,16.10
2018-07-13T23:59:44.529Z,16.00
